sensor_id;sensor_type;location;lat;lon;timestamp;P1;durP1;ratioP1;P2;durP2;ratioP2
11042;SDS011;5574;48.786;10.120;2023-02-21T00:02:06;4.13;;;3.50;;
11042;SDS011;5574;48.786;10.120;2023-02-21T00:04:50;5.20;;;3.70;;
11042;SDS011;5574;48.786;10.120;2023-02-21T00:07:34;5.10;;;3.67;;
11042;SDS011;5574;48.786;10.120;2023-02-21T00:10:18;6.10;;;3.80;;
11042;SDS011;5574;48.786;10.120;2023-02-21T00:13:04;6.53;;;4.70;;
11042;SDS011;5574;48.786;10.120;2023-02-21T00:15:48;3.67;;;3.27;;
11042;SDS011;5574;48.786;10.120;2023-02-21T00:18:32;6.77;;;3.97;;
11042;SDS011;5574;48.786;10.120;2023-02-21T00:21:17;4.63;;;3.30;;
11042;SDS011;5574;48.786;10.120;2023-02-21T00:24:01;5.13;;;2.80;;
11042;SDS011;5574;48.786;10.120;2023-02-21T00:26:45;4.80;;;3.33;;
11042;SDS011;5574;48.786;10.120;2023-02-21T00:29:30;4.53;;;3.87;;
11042;SDS011;5574;48.786;10.120;2023-02-21T00:32:15;3.67;;;2.90;;
11042;SDS011;5574;48.786;10.120;2023-02-21T00:34:59;3.53;;;2.40;;
11042;SDS011;5574;48.786;10.120;2023-02-21T00:37:43;3.87;;;2.67;;
11042;SDS011;5574;48.786;10.120;2023-02-21T00:40:27;5.37;;;3.07;;
11042;SDS011;5574;48.786;10.120;2023-02-21T00:43:11;4.23;;;3.17;;
11042;SDS011;5574;48.786;10.120;2023-02-21T00:45:57;3.13;;;2.10;;
11042;SDS011;5574;48.786;10.120;2023-02-21T00:48:41;2.83;;;2.47;;
11042;SDS011;5574;48.786;10.120;2023-02-21T00:51:25;5.17;;;3.17;;
11042;SDS011;5574;48.786;10.120;2023-02-21T00:54:09;3.33;;;3.00;;
11042;SDS011;5574;48.786;10.120;2023-02-21T00:56:53;3.87;;;2.60;;
11042;SDS011;5574;48.786;10.120;2023-02-21T00:59:37;2.83;;;2.53;;
11042;SDS011;5574;48.786;10.120;2023-02-21T01:02:23;3.93;;;2.80;;
11042;SDS011;5574;48.786;10.120;2023-02-21T01:05:07;3.70;;;3.17;;
11042;SDS011;5574;48.786;10.120;2023-02-21T01:07:51;4.30;;;3.43;;
11042;SDS011;5574;48.786;10.120;2023-02-21T01:10:35;4.70;;;3.57;;
11042;SDS011;5574;48.786;10.120;2023-02-21T01:13:19;5.87;;;3.60;;
11042;SDS011;5574;48.786;10.120;2023-02-21T01:16:05;4.73;;;4.13;;
11042;SDS011;5574;48.786;10.120;2023-02-21T01:18:51;7.20;;;4.37;;
11042;SDS011;5574;48.786;10.120;2023-02-21T01:21:35;5.40;;;3.83;;
11042;SDS011;5574;48.786;10.120;2023-02-21T01:24:19;7.33;;;4.23;;
11042;SDS011;5574;48.786;10.120;2023-02-21T01:27:04;7.77;;;4.40;;
11042;SDS011;5574;48.786;10.120;2023-02-21T01:29:48;7.97;;;5.00;;
11042;SDS011;5574;48.786;10.120;2023-02-21T01:32:32;7.63;;;4.03;;
11042;SDS011;5574;48.786;10.120;2023-02-21T01:35:17;6.60;;;4.13;;
11042;SDS011;5574;48.786;10.120;2023-02-21T01:38:01;6.50;;;3.90;;
11042;SDS011;5574;48.786;10.120;2023-02-21T01:40:46;4.07;;;2.93;;
11042;SDS011;5574;48.786;10.120;2023-02-21T01:43:30;5.20;;;3.10;;
11042;SDS011;5574;48.786;10.120;2023-02-21T01:46:15;5.03;;;3.47;;
11042;SDS011;5574;48.786;10.120;2023-02-21T01:49:01;6.13;;;4.10;;
11042;SDS011;5574;48.786;10.120;2023-02-21T01:51:51;7.07;;;4.30;;
11042;SDS011;5574;48.786;10.120;2023-02-21T01:54:37;5.70;;;3.47;;
11042;SDS011;5574;48.786;10.120;2023-02-21T01:57:25;4.87;;;3.43;;
11042;SDS011;5574;48.786;10.120;2023-02-21T02:00:10;7.00;;;4.00;;
11042;SDS011;5574;48.786;10.120;2023-02-21T02:02:57;9.13;;;3.90;;
11042;SDS011;5574;48.786;10.120;2023-02-21T02:05:43;6.33;;;3.67;;
11042;SDS011;5574;48.786;10.120;2023-02-21T02:08:33;3.87;;;2.90;;
11042;SDS011;5574;48.786;10.120;2023-02-21T02:11:33;5.67;;;3.00;;
11042;SDS011;5574;48.786;10.120;2023-02-21T02:17:53;5.67;;;3.33;;
11042;SDS011;5574;48.786;10.120;2023-02-21T02:23:45;7.07;;;3.73;;
11042;SDS011;5574;48.786;10.120;2023-02-21T02:26:43;6.20;;;3.80;;
11042;SDS011;5574;48.786;10.120;2023-02-21T02:30:01;5.03;;;2.93;;
11042;SDS011;5574;48.786;10.120;2023-02-21T02:36:02;6.73;;;3.23;;
11042;SDS011;5574;48.786;10.120;2023-02-21T02:38:35;5.20;;;3.47;;
11042;SDS011;5574;48.786;10.120;2023-02-21T02:41:08;6.00;;;3.97;;
11042;SDS011;5574;48.786;10.120;2023-02-21T02:43:43;6.80;;;4.23;;
11042;SDS011;5574;48.786;10.120;2023-02-21T02:46:16;7.63;;;4.50;;
11042;SDS011;5574;48.786;10.120;2023-02-21T02:48:46;10.27;;;5.83;;
11042;SDS011;5574;48.786;10.120;2023-02-21T02:51:18;7.03;;;3.90;;
11042;SDS011;5574;48.786;10.120;2023-02-21T02:53:45;6.57;;;3.93;;
11042;SDS011;5574;48.786;10.120;2023-02-21T02:56:13;4.47;;;3.10;;
11042;SDS011;5574;48.786;10.120;2023-02-21T02:58:42;6.87;;;3.40;;
11042;SDS011;5574;48.786;10.120;2023-02-21T03:01:18;4.47;;;3.30;;
11042;SDS011;5574;48.786;10.120;2023-02-21T03:03:59;5.27;;;3.30;;
11042;SDS011;5574;48.786;10.120;2023-02-21T03:06:52;6.20;;;3.53;;
11042;SDS011;5574;48.786;10.120;2023-02-21T03:09:24;4.13;;;2.93;;
11042;SDS011;5574;48.786;10.120;2023-02-21T03:11:56;4.30;;;2.80;;
11042;SDS011;5574;48.786;10.120;2023-02-21T03:14:28;6.60;;;3.20;;
11042;SDS011;5574;48.786;10.120;2023-02-21T03:17:00;4.20;;;2.80;;
11042;SDS011;5574;48.786;10.120;2023-02-21T03:19:30;4.77;;;2.60;;
11042;SDS011;5574;48.786;10.120;2023-02-21T03:22:02;4.33;;;2.50;;
11042;SDS011;5574;48.786;10.120;2023-02-21T03:24:32;4.80;;;2.50;;
11042;SDS011;5574;48.786;10.120;2023-02-21T03:27:01;4.23;;;2.47;;
11042;SDS011;5574;48.786;10.120;2023-02-21T03:29:30;3.33;;;2.30;;
11042;SDS011;5574;48.786;10.120;2023-02-21T03:31:59;3.10;;;2.30;;
11042;SDS011;5574;48.786;10.120;2023-02-21T03:34:34;2.30;;;2.10;;
11042;SDS011;5574;48.786;10.120;2023-02-21T03:37:02;2.37;;;1.97;;
11042;SDS011;5574;48.786;10.120;2023-02-21T03:39:30;3.03;;;1.93;;
11042;SDS011;5574;48.786;10.120;2023-02-21T03:41:56;2.50;;;2.10;;
11042;SDS011;5574;48.786;10.120;2023-02-21T03:44:23;2.10;;;1.90;;
11042;SDS011;5574;48.786;10.120;2023-02-21T03:46:50;4.97;;;1.90;;
11042;SDS011;5574;48.786;10.120;2023-02-21T03:49:16;1.90;;;1.70;;
11042;SDS011;5574;48.786;10.120;2023-02-21T03:51:43;2.77;;;1.70;;
11042;SDS011;5574;48.786;10.120;2023-02-21T03:54:11;4.80;;;1.80;;
11042;SDS011;5574;48.786;10.120;2023-02-21T03:56:38;2.87;;;1.80;;
11042;SDS011;5574;48.786;10.120;2023-02-21T03:59:04;2.37;;;2.07;;
11042;SDS011;5574;48.786;10.120;2023-02-21T04:01:31;2.60;;;2.00;;
11042;SDS011;5574;48.786;10.120;2023-02-21T04:03:58;2.67;;;1.70;;
11042;SDS011;5574;48.786;10.120;2023-02-21T04:06:24;3.60;;;1.90;;
11042;SDS011;5574;48.786;10.120;2023-02-21T04:08:51;4.27;;;2.40;;
11042;SDS011;5574;48.786;10.120;2023-02-21T04:11:20;3.17;;;2.13;;
11042;SDS011;5574;48.786;10.120;2023-02-21T04:13:47;4.67;;;2.43;;
11042;SDS011;5574;48.786;10.120;2023-02-21T04:16:13;4.97;;;3.50;;
11042;SDS011;5574;48.786;10.120;2023-02-21T04:18:40;6.43;;;4.00;;
11042;SDS011;5574;48.786;10.120;2023-02-21T04:21:07;9.43;;;4.70;;
11042;SDS011;5574;48.786;10.120;2023-02-21T04:23:33;8.80;;;5.57;;
11042;SDS011;5574;48.786;10.120;2023-02-21T04:26:00;12.53;;;6.63;;
11042;SDS011;5574;48.786;10.120;2023-02-21T04:28:28;9.30;;;5.90;;
11042;SDS011;5574;48.786;10.120;2023-02-21T04:30:55;11.60;;;6.93;;
11042;SDS011;5574;48.786;10.120;2023-02-21T04:33:21;7.90;;;4.00;;
11042;SDS011;5574;48.786;10.120;2023-02-21T04:35:48;6.97;;;3.77;;
11042;SDS011;5574;48.786;10.120;2023-02-21T04:38:15;7.80;;;3.07;;
11042;SDS011;5574;48.786;10.120;2023-02-21T04:40:42;4.80;;;3.13;;
11042;SDS011;5574;48.786;10.120;2023-02-21T04:43:08;5.50;;;3.33;;
11042;SDS011;5574;48.786;10.120;2023-02-21T04:45:36;6.10;;;3.93;;
11042;SDS011;5574;48.786;10.120;2023-02-21T04:48:03;5.10;;;3.50;;
11042;SDS011;5574;48.786;10.120;2023-02-21T04:50:30;5.90;;;3.50;;
11042;SDS011;5574;48.786;10.120;2023-02-21T04:52:57;5.80;;;3.30;;
11042;SDS011;5574;48.786;10.120;2023-02-21T04:55:23;3.83;;;2.80;;
11042;SDS011;5574;48.786;10.120;2023-02-21T04:57:50;4.53;;;2.80;;
11042;SDS011;5574;48.786;10.120;2023-02-21T05:00:17;4.17;;;2.90;;
11042;SDS011;5574;48.786;10.120;2023-02-21T05:02:45;3.50;;;2.63;;
11042;SDS011;5574;48.786;10.120;2023-02-21T05:05:12;3.33;;;2.93;;
11042;SDS011;5574;48.786;10.120;2023-02-21T05:07:39;5.43;;;3.00;;
11042;SDS011;5574;48.786;10.120;2023-02-21T05:10:07;4.67;;;3.40;;
11042;SDS011;5574;48.786;10.120;2023-02-21T05:12:35;3.97;;;2.90;;
11042;SDS011;5574;48.786;10.120;2023-02-21T05:15:03;6.57;;;4.87;;
11042;SDS011;5574;48.786;10.120;2023-02-21T05:17:31;6.10;;;3.87;;
11042;SDS011;5574;48.786;10.120;2023-02-21T05:19:59;5.23;;;3.40;;
11042;SDS011;5574;48.786;10.120;2023-02-21T05:22:26;5.97;;;3.00;;
11042;SDS011;5574;48.786;10.120;2023-02-21T05:24:53;5.23;;;3.20;;
11042;SDS011;5574;48.786;10.120;2023-02-21T05:27:20;5.60;;;2.90;;
11042;SDS011;5574;48.786;10.120;2023-02-21T05:29:47;9.17;;;4.13;;
11042;SDS011;5574;48.786;10.120;2023-02-21T05:32:15;5.67;;;4.13;;
11042;SDS011;5574;48.786;10.120;2023-02-21T05:34:43;8.00;;;4.50;;
11042;SDS011;5574;48.786;10.120;2023-02-21T05:37:13;7.50;;;4.80;;
11042;SDS011;5574;48.786;10.120;2023-02-21T05:39:41;6.97;;;5.40;;
11042;SDS011;5574;48.786;10.120;2023-02-21T05:42:07;7.67;;;5.03;;
11042;SDS011;5574;48.786;10.120;2023-02-21T05:44:34;6.67;;;5.33;;
11042;SDS011;5574;48.786;10.120;2023-02-21T05:47:01;8.17;;;4.40;;
11042;SDS011;5574;48.786;10.120;2023-02-21T05:49:28;6.53;;;4.50;;
11042;SDS011;5574;48.786;10.120;2023-02-21T05:51:54;6.03;;;4.43;;
11042;SDS011;5574;48.786;10.120;2023-02-21T05:54:22;11.00;;;6.17;;
11042;SDS011;5574;48.786;10.120;2023-02-21T05:56:50;6.67;;;4.93;;
11042;SDS011;5574;48.786;10.120;2023-02-21T05:59:17;11.83;;;5.97;;
11042;SDS011;5574;48.786;10.120;2023-02-21T06:01:45;7.50;;;5.20;;
11042;SDS011;5574;48.786;10.120;2023-02-21T06:04:13;9.67;;;4.87;;
11042;SDS011;5574;48.786;10.120;2023-02-21T06:06:40;5.57;;;3.40;;
11042;SDS011;5574;48.786;10.120;2023-02-21T06:09:07;5.67;;;3.83;;
11042;SDS011;5574;48.786;10.120;2023-02-21T06:11:36;6.07;;;4.00;;
11042;SDS011;5574;48.786;10.120;2023-02-21T06:14:05;4.70;;;3.80;;
11042;SDS011;5574;48.786;10.120;2023-02-21T06:16:33;6.37;;;3.27;;
11042;SDS011;5574;48.786;10.120;2023-02-21T06:19:01;4.97;;;3.20;;
11042;SDS011;5574;48.786;10.120;2023-02-21T06:21:30;5.67;;;3.40;;
11042;SDS011;5574;48.786;10.120;2023-02-21T06:23:57;7.77;;;3.10;;
11042;SDS011;5574;48.786;10.120;2023-02-21T06:26:24;8.97;;;3.27;;
11042;SDS011;5574;48.786;10.120;2023-02-21T06:28:52;8.20;;;3.90;;
11042;SDS011;5574;48.786;10.120;2023-02-21T06:31:19;10.10;;;4.30;;
11042;SDS011;5574;48.786;10.120;2023-02-21T06:34:01;10.03;;;4.60;;
11042;SDS011;5574;48.786;10.120;2023-02-21T06:36:28;18.80;;;11.93;;
11042;SDS011;5574;48.786;10.120;2023-02-21T06:38:55;9.23;;;4.50;;
11042;SDS011;5574;48.786;10.120;2023-02-21T06:41:23;14.80;;;9.73;;
11042;SDS011;5574;48.786;10.120;2023-02-21T06:43:51;14.30;;;8.07;;
11042;SDS011;5574;48.786;10.120;2023-02-21T06:46:20;30.67;;;17.67;;
11042;SDS011;5574;48.786;10.120;2023-02-21T06:48:48;190.40;;;83.03;;
11042;SDS011;5574;48.786;10.120;2023-02-21T06:51:16;73.50;;;36.07;;
11042;SDS011;5574;48.786;10.120;2023-02-21T06:53:44;69.27;;;37.20;;
11042;SDS011;5574;48.786;10.120;2023-02-21T06:56:14;26.07;;;14.80;;
11042;SDS011;5574;48.786;10.120;2023-02-21T06:58:40;18.20;;;12.10;;
11042;SDS011;5574;48.786;10.120;2023-02-21T07:01:08;15.73;;;10.43;;
11042;SDS011;5574;48.786;10.120;2023-02-21T07:03:37;19.70;;;13.87;;
11042;SDS011;5574;48.786;10.120;2023-02-21T07:06:04;27.37;;;17.47;;
11042;SDS011;5574;48.786;10.120;2023-02-21T07:08:31;15.20;;;9.57;;
11042;SDS011;5574;48.786;10.120;2023-02-21T07:10:58;33.73;;;21.13;;
11042;SDS011;5574;48.786;10.120;2023-02-21T07:13:25;10.63;;;7.67;;
11042;SDS011;5574;48.786;10.120;2023-02-21T07:15:51;9.97;;;7.07;;
11042;SDS011;5574;48.786;10.120;2023-02-21T07:18:20;11.63;;;7.73;;
11042;SDS011;5574;48.786;10.120;2023-02-21T07:20:46;13.67;;;7.53;;
11042;SDS011;5574;48.786;10.120;2023-02-21T07:23:13;17.20;;;12.83;;
11042;SDS011;5574;48.786;10.120;2023-02-21T07:25:40;16.63;;;13.50;;
11042;SDS011;5574;48.786;10.120;2023-02-21T07:28:07;21.90;;;16.03;;
11042;SDS011;5574;48.786;10.120;2023-02-21T07:30:33;18.50;;;14.70;;
11042;SDS011;5574;48.786;10.120;2023-02-21T07:33:00;20.17;;;15.23;;
11042;SDS011;5574;48.786;10.120;2023-02-21T07:35:30;24.23;;;14.27;;
11042;SDS011;5574;48.786;10.120;2023-02-21T07:38:19;8.37;;;4.67;;
11042;SDS011;5574;48.786;10.120;2023-02-21T07:40:46;7.40;;;3.37;;
11042;SDS011;5574;48.786;10.120;2023-02-21T07:43:13;12.23;;;3.77;;
11042;SDS011;5574;48.786;10.120;2023-02-21T07:45:40;8.63;;;3.40;;
11042;SDS011;5574;48.786;10.120;2023-02-21T07:48:07;7.77;;;3.87;;
11042;SDS011;5574;48.786;10.120;2023-02-21T07:50:35;6.87;;;4.17;;
11042;SDS011;5574;48.786;10.120;2023-02-21T07:53:02;6.20;;;3.60;;
11042;SDS011;5574;48.786;10.120;2023-02-21T07:55:28;7.80;;;3.90;;
11042;SDS011;5574;48.786;10.120;2023-02-21T07:57:55;6.20;;;3.40;;
11042;SDS011;5574;48.786;10.120;2023-02-21T08:00:22;8.23;;;3.27;;
11042;SDS011;5574;48.786;10.120;2023-02-21T08:02:49;11.43;;;3.33;;
11042;SDS011;5574;48.786;10.120;2023-02-21T08:05:16;11.27;;;3.87;;
11042;SDS011;5574;48.786;10.120;2023-02-21T08:07:46;12.50;;;7.67;;
11042;SDS011;5574;48.786;10.120;2023-02-21T08:10:17;13.37;;;5.57;;
11042;SDS011;5574;48.786;10.120;2023-02-21T08:12:46;9.70;;;6.97;;
11042;SDS011;5574;48.786;10.120;2023-02-21T08:15:12;10.30;;;4.27;;
11042;SDS011;5574;48.786;10.120;2023-02-21T08:17:39;6.27;;;3.70;;
11042;SDS011;5574;48.786;10.120;2023-02-21T08:20:07;5.80;;;3.37;;
11042;SDS011;5574;48.786;10.120;2023-02-21T08:22:36;6.63;;;3.53;;
11042;SDS011;5574;48.786;10.120;2023-02-21T08:25:05;7.00;;;3.33;;
11042;SDS011;5574;48.786;10.120;2023-02-21T08:27:32;5.83;;;3.23;;
11042;SDS011;5574;48.786;10.120;2023-02-21T08:29:59;4.67;;;3.40;;
11042;SDS011;5574;48.786;10.120;2023-02-21T08:32:26;4.03;;;3.00;;
11042;SDS011;5574;48.786;10.120;2023-02-21T08:34:53;6.37;;;3.00;;
11042;SDS011;5574;48.786;10.120;2023-02-21T08:37:19;4.43;;;2.80;;
11042;SDS011;5574;48.786;10.120;2023-02-21T08:39:46;4.17;;;2.90;;
11042;SDS011;5574;48.786;10.120;2023-02-21T08:42:16;3.30;;;2.87;;
11042;SDS011;5574;48.786;10.120;2023-02-21T08:44:43;3.00;;;2.47;;
11042;SDS011;5574;48.786;10.120;2023-02-21T08:47:10;4.57;;;2.67;;
11042;SDS011;5574;48.786;10.120;2023-02-21T08:49:38;3.70;;;2.73;;
11042;SDS011;5574;48.786;10.120;2023-02-21T08:52:06;4.37;;;2.90;;
11042;SDS011;5574;48.786;10.120;2023-02-21T08:54:33;7.53;;;3.00;;
11042;SDS011;5574;48.786;10.120;2023-02-21T08:57:00;3.70;;;2.50;;
11042;SDS011;5574;48.786;10.120;2023-02-21T08:59:28;3.70;;;2.63;;
11042;SDS011;5574;48.786;10.120;2023-02-21T09:01:57;3.10;;;2.53;;
11042;SDS011;5574;48.786;10.120;2023-02-21T09:04:24;4.23;;;2.57;;
11042;SDS011;5574;48.786;10.120;2023-02-21T09:06:52;4.53;;;2.50;;
11042;SDS011;5574;48.786;10.120;2023-02-21T09:09:19;6.63;;;2.50;;
11042;SDS011;5574;48.786;10.120;2023-02-21T09:11:46;3.17;;;2.20;;
11042;SDS011;5574;48.786;10.120;2023-02-21T09:14:13;2.97;;;2.37;;
11042;SDS011;5574;48.786;10.120;2023-02-21T09:16:41;5.73;;;2.00;;
11042;SDS011;5574;48.786;10.120;2023-02-21T09:19:09;4.00;;;2.20;;
11042;SDS011;5574;48.786;10.120;2023-02-21T09:21:37;3.00;;;1.90;;
11042;SDS011;5574;48.786;10.120;2023-02-21T09:24:09;7.30;;;2.40;;
11042;SDS011;5574;48.786;10.120;2023-02-21T09:26:36;3.87;;;2.20;;
11042;SDS011;5574;48.786;10.120;2023-02-21T09:29:03;2.30;;;1.40;;
11042;SDS011;5574;48.786;10.120;2023-02-21T09:31:30;2.53;;;1.70;;
11042;SDS011;5574;48.786;10.120;2023-02-21T09:33:58;3.13;;;1.97;;
11042;SDS011;5574;48.786;10.120;2023-02-21T09:36:24;3.30;;;2.00;;
11042;SDS011;5574;48.786;10.120;2023-02-21T09:38:51;3.17;;;1.80;;
11042;SDS011;5574;48.786;10.120;2023-02-21T09:41:18;4.10;;;1.83;;
11042;SDS011;5574;48.786;10.120;2023-02-21T09:43:46;2.53;;;1.43;;
11042;SDS011;5574;48.786;10.120;2023-02-21T09:46:15;1.93;;;1.60;;
11042;SDS011;5574;48.786;10.120;2023-02-21T09:48:46;1.70;;;1.30;;
11042;SDS011;5574;48.786;10.120;2023-02-21T09:51:15;5.83;;;2.10;;
11042;SDS011;5574;48.786;10.120;2023-02-21T09:53:43;3.73;;;1.70;;
11042;SDS011;5574;48.786;10.120;2023-02-21T09:56:13;2.47;;;1.40;;
11042;SDS011;5574;48.786;10.120;2023-02-21T09:58:46;1.70;;;1.30;;
11042;SDS011;5574;48.786;10.120;2023-02-21T10:01:19;1.40;;;1.30;;
11042;SDS011;5574;48.786;10.120;2023-02-21T10:03:57;2.70;;;2.00;;
11042;SDS011;5574;48.786;10.120;2023-02-21T10:06:36;1.87;;;1.40;;
11042;SDS011;5574;48.786;10.120;2023-02-21T10:09:15;1.90;;;1.60;;
11042;SDS011;5574;48.786;10.120;2023-02-21T10:11:53;3.33;;;1.67;;
11042;SDS011;5574;48.786;10.120;2023-02-21T10:14:30;7.90;;;1.90;;
11042;SDS011;5574;48.786;10.120;2023-02-21T10:17:03;2.40;;;1.67;;
11042;SDS011;5574;48.786;10.120;2023-02-21T10:19:38;2.27;;;1.67;;
11042;SDS011;5574;48.786;10.120;2023-02-21T10:22:11;3.93;;;1.60;;
11042;SDS011;5574;48.786;10.120;2023-02-21T10:24:40;3.17;;;1.50;;
11042;SDS011;5574;48.786;10.120;2023-02-21T10:27:09;1.90;;;1.27;;
11042;SDS011;5574;48.786;10.120;2023-02-21T10:29:41;2.83;;;1.67;;
11042;SDS011;5574;48.786;10.120;2023-02-21T10:32:12;2.13;;;1.50;;
11042;SDS011;5574;48.786;10.120;2023-02-21T10:34:39;1.43;;;1.33;;
11042;SDS011;5574;48.786;10.120;2023-02-21T10:37:14;1.40;;;1.17;;
11042;SDS011;5574;48.786;10.120;2023-02-21T10:39:53;1.40;;;1.30;;
11042;SDS011;5574;48.786;10.120;2023-02-21T10:42:25;1.67;;;1.57;;
11042;SDS011;5574;48.786;10.120;2023-02-21T10:44:56;2.57;;;1.40;;
11042;SDS011;5574;48.786;10.120;2023-02-21T10:47:25;4.30;;;1.40;;
11042;SDS011;5574;48.786;10.120;2023-02-21T10:49:58;1.60;;;1.43;;
11042;SDS011;5574;48.786;10.120;2023-02-21T10:52:28;10.43;;;2.43;;
11042;SDS011;5574;48.786;10.120;2023-02-21T10:55:02;2.23;;;1.53;;
11042;SDS011;5574;48.786;10.120;2023-02-21T10:57:32;3.60;;;1.53;;
11042;SDS011;5574;48.786;10.120;2023-02-21T11:00:06;2.43;;;1.50;;
11042;SDS011;5574;48.786;10.120;2023-02-21T11:02:35;8.33;;;2.50;;
11042;SDS011;5574;48.786;10.120;2023-02-21T11:05:07;1.97;;;1.30;;
11042;SDS011;5574;48.786;10.120;2023-02-21T11:07:38;2.93;;;1.60;;
11042;SDS011;5574;48.786;10.120;2023-02-21T11:13:00;2.47;;;1.88;;
11042;SDS011;5574;48.786;10.120;2023-02-21T11:15:28;1.70;;;1.60;;
11042;SDS011;5574;48.786;10.120;2023-02-21T11:18:01;6.80;;;2.20;;
11042;SDS011;5574;48.786;10.120;2023-02-21T11:20:31;1.70;;;1.60;;
11042;SDS011;5574;48.786;10.120;2023-02-21T11:22:59;1.60;;;1.50;;
11042;SDS011;5574;48.786;10.120;2023-02-21T11:25:26;4.32;;;1.88;;
11042;SDS011;5574;48.786;10.120;2023-02-21T11:28:00;3.97;;;1.80;;
11042;SDS011;5574;48.786;10.120;2023-02-21T11:30:29;2.83;;;1.90;;
11042;SDS011;5574;48.786;10.120;2023-02-21T11:32:58;4.10;;;1.23;;
11042;SDS011;5574;48.786;10.120;2023-02-21T11:35:27;6.00;;;2.20;;
11042;SDS011;5574;48.786;10.120;2023-02-21T11:37:57;3.97;;;2.25;;
11042;SDS011;5574;48.786;10.120;2023-02-21T11:40:28;2.17;;;1.70;;
11042;SDS011;5574;48.786;10.120;2023-02-21T11:43:15;2.53;;;1.70;;
11042;SDS011;5574;48.786;10.120;2023-02-21T11:45:48;5.00;;;2.30;;
11042;SDS011;5574;48.786;10.120;2023-02-21T11:48:23;4.88;;;2.00;;
11042;SDS011;5574;48.786;10.120;2023-02-21T11:50:55;2.80;;;1.90;;
11042;SDS011;5574;48.786;10.120;2023-02-21T11:53:26;1.92;;;1.25;;
11042;SDS011;5574;48.786;10.120;2023-02-21T11:55:57;4.88;;;1.35;;
11042;SDS011;5574;48.786;10.120;2023-02-21T11:58:33;1.65;;;1.55;;
11042;SDS011;5574;48.786;10.120;2023-02-21T12:01:08;3.00;;;1.73;;
11042;SDS011;5574;48.786;10.120;2023-02-21T12:03:42;2.35;;;1.73;;
11042;SDS011;5574;48.786;10.120;2023-02-21T12:06:20;5.05;;;1.98;;
11042;SDS011;5574;48.786;10.120;2023-02-21T12:08:56;8.98;;;1.65;;
11042;SDS011;5574;48.786;10.120;2023-02-21T12:14:28;5.13;;;1.73;;
11042;SDS011;5574;48.786;10.120;2023-02-21T12:17:07;2.78;;;1.60;;
11042;SDS011;5574;48.786;10.120;2023-02-21T12:19:51;3.63;;;1.70;;
11042;SDS011;5574;48.786;10.120;2023-02-21T12:22:33;2.88;;;1.40;;
11042;SDS011;5574;48.786;10.120;2023-02-21T12:25:14;3.47;;;1.75;;
11042;SDS011;5574;48.786;10.120;2023-02-21T12:27:47;4.55;;;2.08;;
11042;SDS011;5574;48.786;10.120;2023-02-21T12:30:29;2.03;;;1.80;;
11042;SDS011;5574;48.786;10.120;2023-02-21T12:33:16;2.80;;;1.83;;
11042;SDS011;5574;48.786;10.120;2023-02-21T12:39:08;3.15;;;1.70;;
11042;SDS011;5574;48.786;10.120;2023-02-21T12:41:52;2.72;;;1.75;;
11042;SDS011;5574;48.786;10.120;2023-02-21T12:44:29;2.83;;;1.70;;
11042;SDS011;5574;48.786;10.120;2023-02-21T12:47:06;1.83;;;1.17;;
11042;SDS011;5574;48.786;10.120;2023-02-21T12:49:39;3.92;;;1.85;;
11042;SDS011;5574;48.786;10.120;2023-02-21T12:52:13;5.95;;;2.63;;
11042;SDS011;5574;48.786;10.120;2023-02-21T12:54:43;1.52;;;1.20;;
11042;SDS011;5574;48.786;10.120;2023-02-21T12:57:16;2.47;;;1.25;;
11042;SDS011;5574;48.786;10.120;2023-02-21T12:59:52;1.58;;;1.40;;
11042;SDS011;5574;48.786;10.120;2023-02-21T13:02:33;5.13;;;2.00;;
11042;SDS011;5574;48.786;10.120;2023-02-21T13:05:08;18.00;;;3.05;;
11042;SDS011;5574;48.786;10.120;2023-02-21T13:07:41;2.85;;;1.27;;
11042;SDS011;5574;48.786;10.120;2023-02-21T13:10:13;3.35;;;1.75;;
11042;SDS011;5574;48.786;10.120;2023-02-21T13:12:46;1.90;;;1.50;;
11042;SDS011;5574;48.786;10.120;2023-02-21T13:15:18;4.90;;;2.03;;
11042;SDS011;5574;48.786;10.120;2023-02-21T13:17:51;3.47;;;1.75;;
11042;SDS011;5574;48.786;10.120;2023-02-21T13:20:25;9.20;;;1.95;;
11042;SDS011;5574;48.786;10.120;2023-02-21T13:26:01;3.20;;;1.75;;
11042;SDS011;5574;48.786;10.120;2023-02-21T13:28:40;1.63;;;1.48;;
11042;SDS011;5574;48.786;10.120;2023-02-21T13:31:16;2.35;;;1.58;;
11042;SDS011;5574;48.786;10.120;2023-02-21T13:33:47;4.60;;;1.60;;
11042;SDS011;5574;48.786;10.120;2023-02-21T13:36:19;3.15;;;1.48;;
11042;SDS011;5574;48.786;10.120;2023-02-21T13:39:03;2.15;;;1.45;;
11042;SDS011;5574;48.786;10.120;2023-02-21T13:41:37;4.75;;;1.48;;
11042;SDS011;5574;48.786;10.120;2023-02-21T13:44:09;2.55;;;1.48;;
11042;SDS011;5574;48.786;10.120;2023-02-21T13:49:36;2.10;;;1.50;;
11042;SDS011;5574;48.786;10.120;2023-02-21T13:52:24;2.40;;;1.42;;
11042;SDS011;5574;48.786;10.120;2023-02-21T13:55:07;3.50;;;1.70;;
11042;SDS011;5574;48.786;10.120;2023-02-21T13:57:50;5.38;;;2.63;;
11042;SDS011;5574;48.786;10.120;2023-02-21T14:00:51;7.60;;;2.05;;
11042;SDS011;5574;48.786;10.120;2023-02-21T14:03:29;4.70;;;1.60;;
11042;SDS011;5574;48.786;10.120;2023-02-21T14:06:15;8.65;;;2.13;;
11042;SDS011;5574;48.786;10.120;2023-02-21T14:09:01;5.97;;;1.15;;
11042;SDS011;5574;48.786;10.120;2023-02-21T14:11:33;1.83;;;1.35;;
11042;SDS011;5574;48.786;10.120;2023-02-21T14:14:03;2.97;;;1.77;;
11042;SDS011;5574;48.786;10.120;2023-02-21T14:16:47;1.50;;;1.40;;
11042;SDS011;5574;48.786;10.120;2023-02-21T14:19:18;1.55;;;1.45;;
11042;SDS011;5574;48.786;10.120;2023-02-21T14:21:49;9.82;;;2.05;;
11042;SDS011;5574;48.786;10.120;2023-02-21T14:24:24;5.75;;;1.90;;
11042;SDS011;5574;48.786;10.120;2023-02-21T14:26:54;1.75;;;1.30;;
11042;SDS011;5574;48.786;10.120;2023-02-21T14:29:32;2.05;;;1.30;;
11042;SDS011;5574;48.786;10.120;2023-02-21T14:34:53;2.25;;;1.05;;
11042;SDS011;5574;48.786;10.120;2023-02-21T14:37:23;2.58;;;1.33;;
11042;SDS011;5574;48.786;10.120;2023-02-21T14:39:57;6.65;;;2.28;;
11042;SDS011;5574;48.786;10.120;2023-02-21T14:42:28;2.17;;;1.30;;
11042;SDS011;5574;48.786;10.120;2023-02-21T14:45:34;2.13;;;1.40;;
11042;SDS011;5574;48.786;10.120;2023-02-21T14:48:16;6.43;;;1.80;;
11042;SDS011;5574;48.786;10.120;2023-02-21T14:51:05;3.30;;;1.50;;
11042;SDS011;5574;48.786;10.120;2023-02-21T14:53:50;3.53;;;1.67;;
11042;SDS011;5574;48.786;10.120;2023-02-21T14:56:35;6.60;;;2.00;;
11042;SDS011;5574;48.786;10.120;2023-02-21T14:59:22;5.25;;;1.85;;
11042;SDS011;5574;48.786;10.120;2023-02-21T15:02:16;4.63;;;2.10;;
11042;SDS011;5574;48.786;10.120;2023-02-21T15:04:53;8.00;;;2.08;;
11042;SDS011;5574;48.786;10.120;2023-02-21T15:07:25;3.78;;;2.03;;
11042;SDS011;5574;48.786;10.120;2023-02-21T15:10:10;8.30;;;2.30;;
11042;SDS011;5574;48.786;10.120;2023-02-21T15:12:41;3.38;;;1.75;;
11042;SDS011;5574;48.786;10.120;2023-02-21T15:15:13;2.60;;;1.58;;
11042;SDS011;5574;48.786;10.120;2023-02-21T15:17:42;9.35;;;2.00;;
11042;SDS011;5574;48.786;10.120;2023-02-21T15:20:20;4.75;;;1.80;;
11042;SDS011;5574;48.786;10.120;2023-02-21T15:22:53;6.43;;;2.08;;
11042;SDS011;5574;48.786;10.120;2023-02-21T15:25:22;8.63;;;2.17;;
11042;SDS011;5574;48.786;10.120;2023-02-21T15:27:53;2.50;;;1.40;;
11042;SDS011;5574;48.786;10.120;2023-02-21T15:30:29;5.18;;;1.70;;
11042;SDS011;5574;48.786;10.120;2023-02-21T15:32:59;8.27;;;1.83;;
11042;SDS011;5574;48.786;10.120;2023-02-21T15:35:33;4.13;;;1.58;;
11042;SDS011;5574;48.786;10.120;2023-02-21T15:38:02;11.93;;;2.60;;
11042;SDS011;5574;48.786;10.120;2023-02-21T15:40:31;2.88;;;1.52;;
11042;SDS011;5574;48.786;10.120;2023-02-21T15:42:57;5.20;;;1.30;;
11042;SDS011;5574;48.786;10.120;2023-02-21T15:45:27;7.45;;;1.83;;
11042;SDS011;5574;48.786;10.120;2023-02-21T15:47:58;3.90;;;1.42;;
11042;SDS011;5574;48.786;10.120;2023-02-21T15:50:32;6.57;;;2.17;;